Algerita, Texas
Current Conditions -  °F | °C
As of 7:15 PM on Saturday 22 Nov 2014 (Local Time) from KAQO Reporting Station
Broken Clouds Broken Clouds  
Wind Chill: 61°   Ceiling: 3500
Heat Index: 61°   Visibility: 10mi
Dew Point: 61°   Wind: 3mph
Humidity: 100%   Direction: 80°E
Pressure: 29.81"   Gusts: NA
Location:  31.0718°N, 98.8001°W
Report Text: KAQO 230115Z AUTO 08003KT 10SM SCT016 BKN035 16/16 A2981 RMK AO2 LTG DSNT ALQDS
Loading
Personal Weather Stations






























Interactive Weather Map New forecast layout! Learn more

10-Day Weather Forecast

Advertisements
Track Severe Weather on mobile